sensor_id;sensor_type;location;lat;lon;timestamp;pressure;altitude;pressure_sealevel;temperature;humidity
16595;BME280;8410;52.532;13.336;2024-01-11T00:00:37;102785.84;;;0.79;65.29
16595;BME280;8410;52.532;13.336;2024-01-11T00:03:05;102776.63;;;1.20;62.62
16595;BME280;8410;52.532;13.336;2024-01-11T00:05:33;102781.69;;;0.90;64.16
16595;BME280;8410;52.532;13.336;2024-01-11T00:08:02;102766.59;;;1.12;63.10
16595;BME280;8410;52.532;13.336;2024-01-11T00:10:30;102767.88;;;1.27;64.75
16595;BME280;8410;52.532;13.336;2024-01-11T00:12:57;102776.47;;;0.88;66.17
16595;BME280;8410;52.532;13.336;2024-01-11T00:15:25;102781.88;;;0.62;64.96
16595;BME280;8410;52.532;13.336;2024-01-11T00:17:52;102777.47;;;0.80;65.32
16595;BME280;8410;52.532;13.336;2024-01-11T00:20:20;102774.94;;;0.80;65.42
16595;BME280;8410;52.532;13.336;2024-01-11T00:22:48;102758.69;;;1.60;64.49
16595;BME280;8410;52.532;13.336;2024-01-11T00:25:17;102753.25;;;1.97;63.03
16595;BME280;8410;52.532;13.336;2024-01-11T00:27:45;102738.69;;;1.42;60.55
16595;BME280;8410;52.532;13.336;2024-01-11T00:30:12;102749.09;;;1.35;61.76
16595;BME280;8410;52.532;13.336;2024-01-11T00:32:40;102742.25;;;1.24;61.20
16595;BME280;8410;52.532;13.336;2024-01-11T00:35:08;102745.03;;;1.37;62.72
16595;BME280;8410;52.532;13.336;2024-01-11T00:37:35;102736.91;;;0.70;61.73
16595;BME280;8410;52.532;13.336;2024-01-11T00:40:04;102730.72;;;0.86;61.34
16595;BME280;8410;52.532;13.336;2024-01-11T00:42:33;102725.56;;;0.56;61.20
16595;BME280;8410;52.532;13.336;2024-01-11T00:45:02;102704.47;;;0.86;60.99
16595;BME280;8410;52.532;13.336;2024-01-11T00:47:29;102708.00;;;0.98;60.74
16595;BME280;8410;52.532;13.336;2024-01-11T00:49:57;102705.69;;;0.60;61.48
16595;BME280;8410;52.532;13.336;2024-01-11T00:52:25;102710.28;;;0.64;62.13
16595;BME280;8410;52.532;13.336;2024-01-11T00:54:53;102727.53;;;-0.10;63.49
16595;BME280;8410;52.532;13.336;2024-01-11T00:57:20;102706.56;;;0.40;63.77
16595;BME280;8410;52.532;13.336;2024-01-11T00:59:49;102703.59;;;0.75;62.02
16595;BME280;8410;52.532;13.336;2024-01-11T01:02:19;102707.19;;;0.48;62.94
16595;BME280;8410;52.532;13.336;2024-01-11T01:04:47;102705.72;;;0.21;64.44
16595;BME280;8410;52.532;13.336;2024-01-11T01:07:15;102683.69;;;0.70;63.53
16595;BME280;8410;52.532;13.336;2024-01-11T01:09:42;102661.84;;;0.61;63.56
16595;BME280;8410;52.532;13.336;2024-01-11T01:12:10;102653.75;;;0.86;62.13
16595;BME280;8410;52.532;13.336;2024-01-11T01:14:37;102670.22;;;0.60;63.01
16595;BME280;8410;52.532;13.336;2024-01-11T01:17:06;102671.25;;;0.83;62.47
16595;BME280;8410;52.532;13.336;2024-01-11T01:19:34;102672.00;;;0.92;62.26
16595;BME280;8410;52.532;13.336;2024-01-11T01:22:02;102667.56;;;1.10;62.38
16595;BME280;8410;52.532;13.336;2024-01-11T01:24:30;102679.59;;;0.51;63.43
16595;BME280;8410;52.532;13.336;2024-01-11T01:26:58;102678.09;;;0.84;62.22
16595;BME280;8410;52.532;13.336;2024-01-11T01:29:26;102676.44;;;0.95;63.00
16595;BME280;8410;52.532;13.336;2024-01-11T01:31:54;102678.72;;;0.81;62.15
16595;BME280;8410;52.532;13.336;2024-01-11T01:34:23;102684.94;;;0.85;62.46
16595;BME280;8410;52.532;13.336;2024-01-11T01:36:51;102695.06;;;0.85;62.17
16595;BME280;8410;52.532;13.336;2024-01-11T01:39:19;102686.94;;;1.20;62.06
16595;BME280;8410;52.532;13.336;2024-01-11T01:41:46;102684.16;;;1.17;61.09
16595;BME280;8410;52.532;13.336;2024-01-11T01:44:14;102685.28;;;1.20;62.01
16595;BME280;8410;52.532;13.336;2024-01-11T01:46:41;102684.38;;;1.50;61.63
16595;BME280;8410;52.532;13.336;2024-01-11T01:49:10;102681.63;;;0.96;61.63
16595;BME280;8410;52.532;13.336;2024-01-11T01:51:40;102675.81;;;1.18;61.95
16595;BME280;8410;52.532;13.336;2024-01-11T01:54:08;102672.00;;;1.02;61.65
16595;BME280;8410;52.532;13.336;2024-01-11T01:56:36;102688.47;;;0.66;63.10
16595;BME280;8410;52.532;13.336;2024-01-11T01:59:04;102694.28;;;0.55;63.20
16595;BME280;8410;52.532;13.336;2024-01-11T02:01:32;102710.16;;;-0.35;65.73
16595;BME280;8410;52.532;13.336;2024-01-11T02:04:00;102701.28;;;0.68;65.18
16595;BME280;8410;52.532;13.336;2024-01-11T02:06:29;102696.09;;;0.77;64.54
16595;BME280;8410;52.532;13.336;2024-01-11T02:09:02;102708.47;;;0.43;65.70
16595;BME280;8410;52.532;13.336;2024-01-11T02:11:30;102726.94;;;0.03;65.97
16595;BME280;8410;52.532;13.336;2024-01-11T02:13:58;102723.34;;;-0.10;66.60
16595;BME280;8410;52.532;13.336;2024-01-11T02:16:26;102727.53;;;-0.10;67.51
16595;BME280;8410;52.532;13.336;2024-01-11T02:18:53;102734.38;;;-1.04;69.10
16595;BME280;8410;52.532;13.336;2024-01-11T02:21:22;102719.56;;;-0.05;68.41
16595;BME280;8410;52.532;13.336;2024-01-11T02:24:00;102711.22;;;0.36;66.57
16595;BME280;8410;52.532;13.336;2024-01-11T02:26:28;102718.88;;;0.46;66.17
16595;BME280;8410;52.532;13.336;2024-01-11T02:28:55;102709.03;;;0.90;65.33
16595;BME280;8410;52.532;13.336;2024-01-11T02:31:23;102719.97;;;0.39;66.01
16595;BME280;8410;52.532;13.336;2024-01-11T02:33:52;102729.53;;;0.62;66.04
16595;BME280;8410;52.532;13.336;2024-01-11T02:36:20;102726.75;;;0.80;66.01
16595;BME280;8410;52.532;13.336;2024-01-11T02:38:48;102730.53;;;0.54;64.11
16595;BME280;8410;52.532;13.336;2024-01-11T02:41:18;102718.91;;;0.87;64.14
16595;BME280;8410;52.532;13.336;2024-01-11T02:43:46;102718.28;;;0.90;65.50
16595;BME280;8410;52.532;13.336;2024-01-11T02:46:15;102710.44;;;0.97;63.50
16595;BME280;8410;52.532;13.336;2024-01-11T02:48:43;102699.16;;;0.83;64.70
16595;BME280;8410;52.532;13.336;2024-01-11T02:51:11;102688.03;;;1.54;63.11
16595;BME280;8410;52.532;13.336;2024-01-11T02:53:38;102677.06;;;1.13;63.61
16595;BME280;8410;52.532;13.336;2024-01-11T02:56:06;102674.50;;;1.33;63.69
16595;BME280;8410;52.532;13.336;2024-01-11T02:58:35;102682.16;;;1.13;63.76
16595;BME280;8410;52.532;13.336;2024-01-11T03:01:03;102679.34;;;1.09;63.45
16595;BME280;8410;52.532;13.336;2024-01-11T03:03:31;102680.09;;;0.88;64.63
16595;BME280;8410;52.532;13.336;2024-01-11T03:05:58;102685.44;;;0.71;64.84
16595;BME280;8410;52.532;13.336;2024-01-11T03:08:26;102700.69;;;0.91;65.33
16595;BME280;8410;52.532;13.336;2024-01-11T03:10:54;102706.97;;;0.65;65.58
16595;BME280;8410;52.532;13.336;2024-01-11T03:13:23;102695.31;;;0.98;66.38
16595;BME280;8410;52.532;13.336;2024-01-11T03:15:52;102699.66;;;0.89;65.02
16595;BME280;8410;52.532;13.336;2024-01-11T03:18:19;102686.84;;;0.98;65.26
16595;BME280;8410;52.532;13.336;2024-01-11T03:20:47;102707.06;;;0.36;66.55
16595;BME280;8410;52.532;13.336;2024-01-11T03:23:14;102697.91;;;0.28;66.51
16595;BME280;8410;52.532;13.336;2024-01-11T03:25:42;102696.34;;;0.70;66.21
16595;BME280;8410;52.532;13.336;2024-01-11T03:28:10;102686.97;;;0.69;66.36
16595;BME280;8410;52.532;13.336;2024-01-11T03:30:37;102682.78;;;0.90;65.00
16595;BME280;8410;52.532;13.336;2024-01-11T03:33:06;102686.69;;;0.65;65.87
16595;BME280;8410;52.532;13.336;2024-01-11T03:35:34;102684.13;;;0.45;66.44
16595;BME280;8410;52.532;13.336;2024-01-11T03:38:02;102685.00;;;0.35;66.32
16595;BME280;8410;52.532;13.336;2024-01-11T03:40:29;102668.09;;;0.75;65.09
16595;BME280;8410;52.532;13.336;2024-01-11T03:42:57;102660.97;;;0.92;66.40
16595;BME280;8410;52.532;13.336;2024-01-11T03:45:25;102640.84;;;0.83;64.65
16595;BME280;8410;52.532;13.336;2024-01-11T03:47:52;102635.72;;;1.14;64.79
16595;BME280;8410;52.532;13.336;2024-01-11T03:50:21;102638.94;;;1.43;64.81
16595;BME280;8410;52.532;13.336;2024-01-11T03:52:49;102634.44;;;1.61;63.93
16595;BME280;8410;52.532;13.336;2024-01-11T03:55:16;102632.38;;;1.25;64.91
16595;BME280;8410;52.532;13.336;2024-01-11T03:57:44;102629.59;;;1.64;64.54
16595;BME280;8410;52.532;13.336;2024-01-11T04:00:12;102635.22;;;1.18;65.26
16595;BME280;8410;52.532;13.336;2024-01-11T04:02:40;102627.28;;;1.45;65.60
16595;BME280;8410;52.532;13.336;2024-01-11T04:05:08;102627.84;;;1.63;65.02
16595;BME280;8410;52.532;13.336;2024-01-11T04:07:37;102630.19;;;1.82;64.69
16595;BME280;8410;52.532;13.336;2024-01-11T04:10:06;102637.00;;;1.83;65.22
16595;BME280;8410;52.532;13.336;2024-01-11T04:12:35;102634.03;;;1.67;65.21
16595;BME280;8410;52.532;13.336;2024-01-11T04:15:03;102635.47;;;1.63;65.26
16595;BME280;8410;52.532;13.336;2024-01-11T04:17:30;102611.53;;;2.04;65.87
16595;BME280;8410;52.532;13.336;2024-01-11T04:19:58;102602.84;;;2.12;65.70
16595;BME280;8410;52.532;13.336;2024-01-11T04:22:27;102620.53;;;2.00;66.06
16595;BME280;8410;52.532;13.336;2024-01-11T04:24:56;102633.97;;;1.87;66.23
16595;BME280;8410;52.532;13.336;2024-01-11T04:27:24;102630.50;;;1.65;67.14
16595;BME280;8410;52.532;13.336;2024-01-11T04:29:52;102624.81;;;2.11;67.09
16595;BME280;8410;52.532;13.336;2024-01-11T04:32:19;102620.53;;;2.00;66.91
16595;BME280;8410;52.532;13.336;2024-01-11T04:34:47;102632.81;;;1.84;67.89
16595;BME280;8410;52.532;13.336;2024-01-11T04:37:14;102626.53;;;1.68;69.24
16595;BME280;8410;52.532;13.336;2024-01-11T04:39:42;102633.13;;;1.98;67.87
16595;BME280;8410;52.532;13.336;2024-01-11T04:42:11;102643.09;;;1.63;68.35
16595;BME280;8410;52.532;13.336;2024-01-11T04:44:39;102631.47;;;1.77;68.85
16595;BME280;8410;52.532;13.336;2024-01-11T04:47:06;102634.19;;;1.90;68.65
16595;BME280;8410;52.532;13.336;2024-01-11T04:49:35;102625.19;;;2.06;68.89
16595;BME280;8410;52.532;13.336;2024-01-11T04:52:02;102612.66;;;2.19;67.54
16595;BME280;8410;52.532;13.336;2024-01-11T04:54:30;102598.38;;;2.31;67.91
16595;BME280;8410;52.532;13.336;2024-01-11T04:56:58;102607.59;;;2.19;67.79
16595;BME280;8410;52.532;13.336;2024-01-11T04:59:26;102590.91;;;2.45;68.27
16595;BME280;8410;52.532;13.336;2024-01-11T05:01:54;102586.19;;;2.27;67.79
16595;BME280;8410;52.532;13.336;2024-01-11T05:04:22;102586.97;;;2.72;66.60
16595;BME280;8410;52.532;13.336;2024-01-11T05:06:50;102559.00;;;2.60;67.77
16595;BME280;8410;52.532;13.336;2024-01-11T05:09:18;102560.22;;;2.88;66.88
16595;BME280;8410;52.532;13.336;2024-01-11T05:11:46;102584.13;;;2.79;67.66
16595;BME280;8410;52.532;13.336;2024-01-11T05:14:13;102612.31;;;1.92;68.90
16595;BME280;8410;52.532;13.336;2024-01-11T05:16:42;102613.81;;;2.01;70.82
16595;BME280;8410;52.532;13.336;2024-01-11T05:19:11;102606.13;;;1.67;71.22
16595;BME280;8410;52.532;13.336;2024-01-11T05:21:39;102578.88;;;2.20;70.43
16595;BME280;8410;52.532;13.336;2024-01-11T05:24:06;102591.03;;;2.24;70.40
16595;BME280;8410;52.532;13.336;2024-01-11T05:26:37;102588.94;;;2.52;69.73
16595;BME280;8410;52.532;13.336;2024-01-11T05:29:05;102596.75;;;2.43;69.52
16595;BME280;8410;52.532;13.336;2024-01-11T05:31:33;102594.66;;;2.38;70.06
16595;BME280;8410;52.532;13.336;2024-01-11T05:34:02;102592.75;;;2.35;68.99
16595;BME280;8410;52.532;13.336;2024-01-11T05:36:30;102582.88;;;2.62;69.89
16595;BME280;8410;52.532;13.336;2024-01-11T05:38:57;102581.22;;;2.74;69.28
16595;BME280;8410;52.532;13.336;2024-01-11T05:41:25;102589.44;;;2.82;68.56
16595;BME280;8410;52.532;13.336;2024-01-11T05:43:52;102589.88;;;2.76;69.13
16595;BME280;8410;52.532;13.336;2024-01-11T05:46:21;102578.97;;;2.43;69.25
16595;BME280;8410;52.532;13.336;2024-01-11T05:48:49;102575.47;;;2.65;70.05
16595;BME280;8410;52.532;13.336;2024-01-11T05:51:18;102570.19;;;2.85;68.80
16595;BME280;8410;52.532;13.336;2024-01-11T05:53:45;102568.66;;;3.11;67.94
16595;BME280;8410;52.532;13.336;2024-01-11T05:56:13;102582.31;;;2.66;68.30
16595;BME280;8410;52.532;13.336;2024-01-11T05:58:40;102577.94;;;3.22;68.50
16595;BME280;8410;52.532;13.336;2024-01-11T06:01:08;102569.19;;;3.30;68.15
16595;BME280;8410;52.532;13.336;2024-01-11T06:03:36;102585.69;;;3.24;68.24
16595;BME280;8410;52.532;13.336;2024-01-11T06:06:05;102603.91;;;2.71;69.42
16595;BME280;8410;52.532;13.336;2024-01-11T06:08:34;102602.44;;;2.63;69.98
16595;BME280;8410;52.532;13.336;2024-01-11T06:11:02;102609.91;;;2.83;68.96
16595;BME280;8410;52.532;13.336;2024-01-11T06:13:30;102602.81;;;2.91;69.55
16595;BME280;8410;52.532;13.336;2024-01-11T06:15:58;102586.03;;;3.05;69.77
16595;BME280;8410;52.532;13.336;2024-01-11T06:18:25;102569.75;;;2.79;70.00
16595;BME280;8410;52.532;13.336;2024-01-11T06:20:53;102556.25;;;3.27;68.95
16595;BME280;8410;52.532;13.336;2024-01-11T06:23:22;102563.13;;;3.05;68.66
16595;BME280;8410;52.532;13.336;2024-01-11T06:25:50;102575.06;;;3.06;68.77
16595;BME280;8410;52.532;13.336;2024-01-11T06:28:18;102578.59;;;2.96;69.83
16595;BME280;8410;52.532;13.336;2024-01-11T06:30:45;102574.16;;;3.41;69.89
16595;BME280;8410;52.532;13.336;2024-01-11T06:33:13;102572.13;;;3.60;68.69
16595;BME280;8410;52.532;13.336;2024-01-11T06:35:40;102580.38;;;3.33;68.99
16595;BME280;8410;52.532;13.336;2024-01-11T06:38:08;102561.75;;;3.45;68.55
16595;BME280;8410;52.532;13.336;2024-01-11T06:40:36;102573.28;;;3.17;69.26
16595;BME280;8410;52.532;13.336;2024-01-11T06:43:05;102567.91;;;3.72;67.18
16595;BME280;8410;52.532;13.336;2024-01-11T06:45:32;102559.91;;;3.80;68.40
16595;BME280;8410;52.532;13.336;2024-01-11T06:48:00;102561.47;;;3.66;68.96
16595;BME280;8410;52.532;13.336;2024-01-11T06:50:28;102551.19;;;4.01;67.74
16595;BME280;8410;52.532;13.336;2024-01-11T06:52:56;102562.00;;;3.25;68.33
16595;BME280;8410;52.532;13.336;2024-01-11T06:55:23;102552.38;;;3.33;69.53
16595;BME280;8410;52.532;13.336;2024-01-11T06:57:53;102553.78;;;3.41;68.50
16595;BME280;8410;52.532;13.336;2024-01-11T07:00:22;102541.81;;;4.13;67.92
16595;BME280;8410;52.532;13.336;2024-01-11T07:02:50;102542.88;;;3.67;67.65
16595;BME280;8410;52.532;13.336;2024-01-11T07:05:20;102537.94;;;3.82;68.82
16595;BME280;8410;52.532;13.336;2024-01-11T07:07:47;102533.84;;;3.59;68.71
16595;BME280;8410;52.532;13.336;2024-01-11T07:10:15;102537.63;;;3.40;70.13
16595;BME280;8410;52.532;13.336;2024-01-11T07:12:42;102537.72;;;3.42;70.30
16595;BME280;8410;52.532;13.336;2024-01-11T07:15:12;102551.97;;;3.63;70.12
16595;BME280;8410;52.532;13.336;2024-01-11T07:17:42;102562.41;;;2.49;71.89
16595;BME280;8410;52.532;13.336;2024-01-11T07:20:10;102546.28;;;2.72;73.48
16595;BME280;8410;52.532;13.336;2024-01-11T07:22:39;102551.84;;;2.90;73.36
16595;BME280;8410;52.532;13.336;2024-01-11T07:25:08;102547.94;;;3.79;72.21
16595;BME280;8410;52.532;13.336;2024-01-11T07:27:36;102533.34;;;4.01;70.07
16595;BME280;8410;52.532;13.336;2024-01-11T07:30:04;102537.34;;;3.97;69.08
16595;BME280;8410;52.532;13.336;2024-01-11T07:32:33;102526.50;;;4.13;69.40
16595;BME280;8410;52.532;13.336;2024-01-11T07:35:02;102531.38;;;3.97;70.05
16595;BME280;8410;52.532;13.336;2024-01-11T07:37:34;102546.66;;;3.60;71.13
16595;BME280;8410;52.532;13.336;2024-01-11T07:40:02;102554.66;;;2.59;73.03
16595;BME280;8410;52.532;13.336;2024-01-11T07:42:30;102551.88;;;3.50;72.14
16595;BME280;8410;52.532;13.336;2024-01-11T07:45:00;102550.94;;;3.01;72.32
16595;BME280;8410;52.532;13.336;2024-01-11T07:47:28;102560.00;;;3.33;73.25
16595;BME280;8410;52.532;13.336;2024-01-11T07:49:55;102566.19;;;3.48;72.18
16595;BME280;8410;52.532;13.336;2024-01-11T07:52:24;102555.22;;;3.86;70.72
16595;BME280;8410;52.532;13.336;2024-01-11T07:54:52;102535.25;;;3.92;71.01
16595;BME280;8410;52.532;13.336;2024-01-11T07:57:20;102533.91;;;3.97;69.98
16595;BME280;8410;52.532;13.336;2024-01-11T07:59:47;102530.16;;;3.55;70.43
16595;BME280;8410;52.532;13.336;2024-01-11T08:02:15;102523.19;;;3.89;69.78
16595;BME280;8410;52.532;13.336;2024-01-11T08:04:43;102517.34;;;4.29;68.93
16595;BME280;8410;52.532;13.336;2024-01-11T08:07:12;102532.72;;;3.55;69.21
16595;BME280;8410;52.532;13.336;2024-01-11T08:09:41;102537.34;;;3.72;70.89
16595;BME280;8410;52.532;13.336;2024-01-11T08:12:11;102529.31;;;4.30;68.80
16595;BME280;8410;52.532;13.336;2024-01-11T08:14:40;102533.91;;;3.97;69.46
16595;BME280;8410;52.532;13.336;2024-01-11T08:17:08;102531.22;;;4.07;69.40
16595;BME280;8410;52.532;13.336;2024-01-11T08:19:36;102531.63;;;4.13;68.99
16595;BME280;8410;52.532;13.336;2024-01-11T08:22:03;102531.78;;;4.03;69.25
16595;BME280;8410;52.532;13.336;2024-01-11T08:24:31;102531.63;;;4.13;70.60
16595;BME280;8410;52.532;13.336;2024-01-11T08:27:02;102544.03;;;3.47;70.45
16595;BME280;8410;52.532;13.336;2024-01-11T08:29:30;102535.84;;;3.88;70.44
16595;BME280;8410;52.532;13.336;2024-01-11T08:31:57;102539.88;;;3.72;70.94
16595;BME280;8410;52.532;13.336;2024-01-11T08:34:26;102545.50;;;3.80;71.59
16595;BME280;8410;52.532;13.336;2024-01-11T08:36:54;102517.78;;;3.85;70.99
16595;BME280;8410;52.532;13.336;2024-01-11T08:39:21;102504.47;;;4.66;69.45
16595;BME280;8410;52.532;13.336;2024-01-11T08:41:49;102509.75;;;4.69;68.06
16595;BME280;8410;52.532;13.336;2024-01-11T08:44:18;102514.56;;;4.12;68.38
16595;BME280;8410;52.532;13.336;2024-01-11T08:46:45;102533.47;;;3.17;70.82
16595;BME280;8410;52.532;13.336;2024-01-11T08:49:13;102524.31;;;3.56;71.54
16595;BME280;8410;52.532;13.336;2024-01-11T08:51:41;102518.16;;;4.03;71.39
16595;BME280;8410;52.532;13.336;2024-01-11T08:54:08;102526.88;;;3.81;71.04
16595;BME280;8410;52.532;13.336;2024-01-11T08:56:37;102523.59;;;4.20;69.40
16595;BME280;8410;52.532;13.336;2024-01-11T08:59:06;102509.81;;;4.43;69.90
16595;BME280;8410;52.532;13.336;2024-01-11T09:01:36;102519.31;;;4.33;68.54
16595;BME280;8410;52.532;13.336;2024-01-11T09:04:06;102497.50;;;4.50;69.87
16595;BME280;8410;52.532;13.336;2024-01-11T09:06:35;102482.09;;;4.88;68.82
16595;BME280;8410;52.532;13.336;2024-01-11T09:09:03;102486.00;;;4.96;66.96
16595;BME280;8410;52.532;13.336;2024-01-11T09:11:36;102475.59;;;5.06;68.67
16595;BME280;8410;52.532;13.336;2024-01-11T09:14:03;102480.84;;;5.23;68.11
16595;BME280;8410;52.532;13.336;2024-01-11T09:16:31;102471.69;;;4.85;68.55
16595;BME280;8410;52.532;13.336;2024-01-11T09:19:00;102473.38;;;4.84;69.11
16595;BME280;8410;52.532;13.336;2024-01-11T09:21:28;102467.38;;;4.97;67.10
16595;BME280;8410;52.532;13.336;2024-01-11T09:23:55;102475.50;;;4.78;69.59
16595;BME280;8410;52.532;13.336;2024-01-11T09:26:23;102487.78;;;4.71;69.26
16595;BME280;8410;52.532;13.336;2024-01-11T09:28:50;102494.47;;;4.69;69.66
16595;BME280;8410;52.532;13.336;2024-01-11T09:31:18;102502.88;;;4.94;68.33
16595;BME280;8410;52.532;13.336;2024-01-11T09:33:45;102499.56;;;4.95;69.48
16595;BME280;8410;52.532;13.336;2024-01-11T09:36:14;102499.19;;;4.76;69.88
16595;BME280;8410;52.532;13.336;2024-01-11T09:38:41;102500.06;;;4.63;70.06
16595;BME280;8410;52.532;13.336;2024-01-11T09:41:12;102490.53;;;4.60;70.34
16595;BME280;8410;52.532;13.336;2024-01-11T09:43:41;102486.81;;;4.69;69.71
16595;BME280;8410;52.532;13.336;2024-01-11T09:46:10;102484.00;;;4.26;71.54
16595;BME280;8410;52.532;13.336;2024-01-11T09:48:40;102495.19;;;4.28;71.15
16595;BME280;8410;52.532;13.336;2024-01-11T09:51:10;102506.97;;;4.01;72.05
16595;BME280;8410;52.532;13.336;2024-01-11T09:53:40;102511.31;;;3.40;73.63
16595;BME280;8410;52.532;13.336;2024-01-11T09:56:09;102510.50;;;3.78;72.00
16595;BME280;8410;52.532;13.336;2024-01-11T09:58:38;102501.81;;;4.12;72.62
16595;BME280;8410;52.532;13.336;2024-01-11T10:01:09;102503.97;;;4.19;71.77
16595;BME280;8410;52.532;13.336;2024-01-11T10:03:39;102508.50;;;4.24;71.09
16595;BME280;8410;52.532;13.336;2024-01-11T10:06:06;102502.66;;;4.38;72.66
16595;BME280;8410;52.532;13.336;2024-01-11T10:08:34;102502.38;;;4.47;71.64
16595;BME280;8410;52.532;13.336;2024-01-11T10:11:03;102504.47;;;4.92;70.82
16595;BME280;8410;52.532;13.336;2024-01-11T10:13:31;102505.66;;;4.84;70.03
16595;BME280;8410;52.532;13.336;2024-01-11T10:16:07;102497.78;;;4.68;70.58
16595;BME280;8410;52.532;13.336;2024-01-11T10:18:36;102500.13;;;5.04;69.81
16595;BME280;8410;52.532;13.336;2024-01-11T10:21:04;102494.75;;;4.86;70.88
16595;BME280;8410;52.532;13.336;2024-01-11T10:23:33;102482.06;;;5.15;69.49
16595;BME280;8410;52.532;13.336;2024-01-11T10:26:01;102472.59;;;5.40;68.70
16595;BME280;8410;52.532;13.336;2024-01-11T10:28:30;102463.72;;;5.48;68.60
16595;BME280;8410;52.532;13.336;2024-01-11T10:30:58;102455.50;;;5.26;69.52
16595;BME280;8410;52.532;13.336;2024-01-11T10:33:26;102458.06;;;5.26;68.06
16595;BME280;8410;52.532;13.336;2024-01-11T10:35:53;102461.00;;;5.60;67.40
16595;BME280;8410;52.532;13.336;2024-01-11T10:38:22;102474.25;;;4.72;68.79
16595;BME280;8410;52.532;13.336;2024-01-11T10:40:53;102462.16;;;4.96;69.59
16595;BME280;8410;52.532;13.336;2024-01-11T10:43:22;102469.91;;;5.11;68.72
16595;BME280;8410;52.532;13.336;2024-01-11T10:45:51;102474.63;;;4.78;69.63
16595;BME280;8410;52.532;13.336;2024-01-11T10:48:21;102476.97;;;4.48;71.05
16595;BME280;8410;52.532;13.336;2024-01-11T10:50:54;102497.06;;;4.43;70.92
16595;BME280;8410;52.532;13.336;2024-01-11T10:53:28;102486.75;;;4.29;71.65
16595;BME280;8410;52.532;13.336;2024-01-11T10:55:58;102476.59;;;4.82;70.62
16595;BME280;8410;52.532;13.336;2024-01-11T10:58:26;102474.03;;;4.95;70.19
16595;BME280;8410;52.532;13.336;2024-01-11T11:00:56;102463.41;;;4.89;71.56
16595;BME280;8410;52.532;13.336;2024-01-11T11:03:26;102462.38;;;5.40;69.20
16595;BME280;8410;52.532;13.336;2024-01-11T11:05:54;102456.63;;;5.44;69.37
16595;BME280;8410;52.532;13.336;2024-01-11T11:08:23;102459.41;;;5.34;69.40
16595;BME280;8410;52.532;13.336;2024-01-11T11:10:55;102454.56;;;5.24;68.85
16595;BME280;8410;52.532;13.336;2024-01-11T11:13:23;102443.22;;;5.34;69.86
16595;BME280;8410;52.532;13.336;2024-01-11T11:15:51;102454.19;;;5.04;70.04
16595;BME280;8410;52.532;13.336;2024-01-11T11:18:20;102455.41;;;3.91;72.89
16595;BME280;8410;52.532;13.336;2024-01-11T11:20:48;102468.50;;;3.59;76.22
16595;BME280;8410;52.532;13.336;2024-01-11T11:23:17;102470.25;;;4.10;74.81
16595;BME280;8410;52.532;13.336;2024-01-11T11:25:46;102478.56;;;3.58;75.65
16595;BME280;8410;52.532;13.336;2024-01-11T11:28:15;102472.56;;;3.94;75.40
16595;BME280;8410;52.532;13.336;2024-01-11T11:30:44;102488.63;;;3.93;75.34
16595;BME280;8410;52.532;13.336;2024-01-11T11:33:17;102479.50;;;3.71;76.70
16595;BME280;8410;52.532;13.336;2024-01-11T11:35:47;102490.44;;;4.07;76.67
16595;BME280;8410;52.532;13.336;2024-01-11T11:38:18;102499.84;;;4.08;77.36
16595;BME280;8410;52.532;13.336;2024-01-11T11:40:47;102498.19;;;3.84;76.12
16595;BME280;8410;52.532;13.336;2024-01-11T11:43:16;102509.00;;;3.68;78.57
16595;BME280;8410;52.532;13.336;2024-01-11T11:45:45;102493.81;;;3.33;80.13
16595;BME280;8410;52.532;13.336;2024-01-11T11:48:47;102499.63;;;3.18;79.34
16595;BME280;8410;52.532;13.336;2024-01-11T11:51:17;102476.00;;;3.69;79.83
16595;BME280;8410;52.532;13.336;2024-01-11T11:53:49;102478.38;;;3.54;78.40
16595;BME280;8410;52.532;13.336;2024-01-11T11:56:18;102486.41;;;3.61;79.72
16595;BME280;8410;52.532;13.336;2024-01-11T11:58:47;102491.28;;;3.69;78.10
16595;BME280;8410;52.532;13.336;2024-01-11T12:01:16;102483.97;;;4.12;77.87
16595;BME280;8410;52.532;13.336;2024-01-11T12:03:45;102470.88;;;4.46;78.59
16595;BME280;8410;52.532;13.336;2024-01-11T12:06:17;102469.72;;;4.28;77.86
16595;BME280;8410;52.532;13.336;2024-01-11T12:08:47;102457.38;;;4.47;76.74
16595;BME280;8410;52.532;13.336;2024-01-11T12:11:17;102458.97;;;3.82;76.95
16595;BME280;8410;52.532;13.336;2024-01-11T12:13:46;102468.44;;;4.34;77.62
16595;BME280;8410;52.532;13.336;2024-01-11T12:16:14;102464.97;;;5.14;75.58
16595;BME280;8410;52.532;13.336;2024-01-11T12:18:42;102468.06;;;4.95;74.63
16595;BME280;8410;52.532;13.336;2024-01-11T12:21:12;102467.38;;;4.71;75.61
16595;BME280;8410;52.532;13.336;2024-01-11T12:23:43;102466.13;;;5.32;72.61
16595;BME280;8410;52.532;13.336;2024-01-11T12:26:11;102478.97;;;4.79;74.61
16595;BME280;8410;52.532;13.336;2024-01-11T12:28:41;102477.19;;;4.00;76.81
16595;BME280;8410;52.532;13.336;2024-01-11T12:31:11;102468.94;;;4.82;76.02
16595;BME280;8410;52.532;13.336;2024-01-11T12:33:40;102448.53;;;4.69;76.14
16595;BME280;8410;52.532;13.336;2024-01-11T12:36:09;102449.56;;;5.12;74.70
16595;BME280;8410;52.532;13.336;2024-01-11T12:38:37;102437.50;;;5.09;75.16
16595;BME280;8410;52.532;13.336;2024-01-11T12:41:08;102432.50;;;5.39;74.28
16595;BME280;8410;52.532;13.336;2024-01-11T12:43:37;102433.50;;;5.28;73.87
16595;BME280;8410;52.532;13.336;2024-01-11T12:46:04;102435.97;;;5.55;74.33
16595;BME280;8410;52.532;13.336;2024-01-11T12:48:32;102440.69;;;5.62;72.38
16595;BME280;8410;52.532;13.336;2024-01-11T12:51:00;102443.91;;;4.90;75.46
16595;BME280;8410;52.532;13.336;2024-01-11T12:53:44;102439.16;;;5.37;74.94
16595;BME280;8410;52.532;13.336;2024-01-11T12:56:14;102440.25;;;4.99;74.13
16595;BME280;8410;52.532;13.336;2024-01-11T12:58:42;102445.00;;;4.53;76.65
16595;BME280;8410;52.532;13.336;2024-01-11T13:01:12;102428.00;;;4.94;74.10
16595;BME280;8410;52.532;13.336;2024-01-11T13:03:44;102423.38;;;5.43;74.35
16595;BME280;8410;52.532;13.336;2024-01-11T13:06:12;102419.41;;;4.52;75.23